Home > Products > Valid Products > MTR

000
SAUS45 KFGZ 230658
MTRFLG
METAR KFLG 230657Z AUTO 25007KT 10SM CLR 11/M03 A2993 RMK AO2 PK WND
22026/0621 SLP046 T01061033 402000011 TSNO





000
SAUS45 KFGZ 230654
MTRRQE
METAR KRQE 230653Z AUTO 22006KT 10SM CLR 13/M02 A2992 RMK AO2 SLP019
T01331022 402500028 TSNO $





000
SAUS45 KFGZ 230558
MTRFLG
METAR KFLG 230557Z AUTO 23016G25KT 10SM CLR 11/M03 A2993 RMK AO2
SLP044 T01111033 10167 20111 50004 TSNO





000
SAUS45 KFGZ 230554
MTRRQE
METAR KRQE 230553Z AUTO 18006KT 10SM CLR 13/M03 A2992 RMK AO2 SLP024
T01281028 10222 20128 51004 TSNO $





000
SAUS45 KFGZ 230458
MTRFLG
METAR KFLG 230457Z AUTO 25010G20KT 10SM CLR 12/M04 A2993 RMK AO2 PK
WND 23032/0407 SLP047 T01171039 TSNO





000
SAUS45 KFGZ 230454
MTRRQE
METAR KRQE 230453Z AUTO 23011G16KT 10SM CLR 15/M03 A2992 RMK AO2
SLP019 T01501033 TSNO $





000
SAUS45 KFGZ 230358
MTRFLG
METAR KFLG 230357Z AUTO 23018G27KT 10SM CLR 13/M04 A2992 RMK AO2 PK
WND 22031/0305 SLP042 T01331044 TSNO





000
SAUS45 KFGZ 230354
MTRRQE
METAR KRQE 230353Z AUTO 24012G20KT 10SM CLR 16/M04 A2993 RMK AO2
SLP022 T01611044 TSNO $





000
SAUS45 KFGZ 230259
MTRFLG
METAR KFLG 230257Z 23024G32KT 10SM CLR 14/M06 A2992 RMK AO2 PK WND
23032/0224 SLP043 T01391061 55006





000
SAUS45 KFGZ 230254
MTRRQE
METAR KRQE 230253Z AUTO 23014G20KT 10SM CLR 18/M08 A2991 RMK AO2 PK
WND 23026/0218 SLP028 T01781083 55002 TSNO $





000
SAUS45 KFGZ 230158
MTRFLG
METAR KFLG 230157Z 21020G33KT 10SM CLR 14/M05 A2991 RMK AO2 PK WND
23033/0100 SLP058 T01441050





000
SAUS45 KFGZ 230154
MTRRQE
METAR KRQE 230153Z AUTO 23016G25KT 10SM CLR 19/M08 A2990 RMK AO2
SLP038 T01891083 TSNO $





000
SAUS45 KFGZ 230058
MTRFLG
METAR KFLG 230057Z 20023G33KT 10SM CLR 16/M04 A2992 RMK AO2 PK WND
22039/0001 SLP062 T01561044





000
SAUS45 KFGZ 230054
MTRRQE
METAR KRQE 230053Z AUTO 23018G26KT 10SM CLR 21/M05 A2991 RMK AO2 PK
WND 22031/2354 SLP045 T02061050 TSNO $





000
SAUS45 KFGZ 222358
MTRFLG
METAR KFLG 222357Z 22025G37KT 10SM CLR 17/M04 A2994 RMK AO2 PK WND
21041/2332 SLP071 T01671039 10200 20167 56020





000
SAUS45 KFGZ 222355
MTRRQE
METAR KRQE 222353Z AUTO 22022G32KT 10SM CLR 22/M11 A2992 RMK AO2 PK
WND 24038/2341 SLP042 T02221106 10250 20211 56020 TSNO $





000
SAUS45 KFGZ 222258
MTRFLG
METAR KFLG 222257Z 22025G34KT 10SM CLR 18/M02 A2995 RMK AO2 PK WND
22040/2214 SLP073 T01831022





000
SAUS45 KFGZ 222254
MTRRQE
METAR KRQE 222253Z AUTO 22024G33KT 10SM CLR 24/M09 A2993 RMK AO2 PK
WND 22035/2239 SLP041 T02391094 TSNO





000
SAUS45 KFGZ 222158
MTRFLG
METAR KFLG 222157Z 21020G38KT 10SM CLR 19/M03 A2998 RMK AO2 PK WND
21042/2125 SLP080 T01891028





000
SAUS45 KFGZ 222155
MTRRQE
METAR KRQE 222153Z AUTO 23021G29KT 10SM SCT110 23/M07 A2995 RMK AO2
PK WND 21035/2102 SLP047 T02331067 TSNO





000
SAUS45 KFGZ 222058
MTRFLG
METAR KFLG 222057Z 23021G36KT 10SM CLR 19/M02 A3001 RMK AO2 PK WND
21037/2018 SLP087 T01941022 58022





000
SAUS45 KFGZ 222054
MTRRQE
METAR KRQE 222053Z AUTO 22018G32KT 10SM SCT110 25/M06 A2999 RMK AO2
PK WND 23034/2034 SLP049 T02501061 58028 TSNO





000
SAUS45 KFGZ 221958
MTRFLG
METAR KFLG 221957Z 21027G38KT 10SM FEW080 19/M02 A3004 RMK AO2 PK
WND 21043/1913 SLP094 T01941017





000
SAUS45 KFGZ 221954
MTRRQE
METAR KRQE 221953Z AUTO 25023G29KT 10SM FEW110 24/M04 A3002 RMK AO2
PK WND 24033/1915 SLP068 T02391039 TSNO





000
SAUS45 KFGZ 221858
MTRFLG
METAR KFLG 221857Z 24023G31KT 10SM CLR 18/M02 A3006 RMK AO2 PK WND
23034/1835 SLP104 T01781022





000
SAUS45 KFGZ 221854
MTRRQE
METAR KRQE 221853Z AUTO 20019G26KT 10SM BKN100 BKN120 23/M04 A3006
RMK AO2 PK WND 20031/1819 SLP080 T02331044 TSNO





000
SAUS45 KFGZ 221758
MTRFLG
METAR KFLG 221757Z 20018G30KT 10SM CLR 18/M02 A3009 RMK AO2 PK WND
22030/1750 SLP108 T01831017 10183 20011 57008





000
SAUS45 KFGZ 221754
MTRRQE
METAR KRQE 221753Z AUTO 20015G29KT 10SM OVC100 22/M05 A3009 RMK AO2
PK WND 23032/1739 SLP094 T02171050 10233 20028 58018 TSNO





000
SAUS45 KFGZ 221658
MTRFLG
METAR KFLG 221657Z 22017G26KT 10SM CLR 17/M03 A3010 RMK AO2 PK WND
23026/1657 SLP111 T01671028





000
SAUS45 KFGZ 221654
MTRRQE
METAR KRQE 221653Z AUTO 20012G22KT 10SM BKN100 22/M03 A3012 RMK AO2
SLP101 T02171033 TSNO





000
SAUS45 KFGZ 221558
MTRFLG
METAR KFLG 221557Z 21012KT 10SM CLR 16/M02 A3011 RMK AO2 SLP118
T01561017





000
SAUS45 KFGZ 221554
MTRRQE
METAR KRQE 221553Z AUTO 18008KT 10SM CLR 19/00 A3014 RMK AO2 SLP111
T01890000 TSNO





000
SAUS45 KFGZ 221458
MTRFLG
METAR KFLG 221457Z 22011KT 10SM CLR 14/M01 A3012 RMK AO2 SLP122
T01391011 56000





000
SAUS45 KFGZ 221454
MTRRQE
METAR KRQE 221453Z AUTO 00000KT 10SM CLR 13/M01 A3015 RMK AO2 SLP126
T01281006 58002 TSNO





000
SAUS45 KFGZ 221358
MTRFLG
METAR KFLG 221357Z 00000KT 10SM CLR 06/M01 A3013 RMK AO2 SLP128
T00611011





000
SAUS45 KFGZ 221354
MTRRQE
METAR KRQE 221353Z AUTO 00000KT 10SM CLR 07/M01 A3017 RMK AO2 SLP134
T00721006 TSNO





000
SAUS45 KFGZ 221258
MTRFLG
METAR KFLG 221257Z 00000KT 10SM CLR 05/M02 A3012 RMK AO2 SLP120
T00501022





000
SAUS45 KFGZ 221254
MTRRQE
METAR KRQE 221253Z AUTO 00000KT 10SM FEW100 04/M02 A3015 RMK AO2
SLP132 T00391017 TSNO





000
SAUS45 KFGZ 221158
MTRFLG
METAR KFLG 221157Z AUTO 21003KT 10SM CLR 02/M03 A3012 RMK AO2 SLP127
T00221028 10083 20011 58014 TSNO





000
SAUS45 KFGZ 221154
MTRRQE
METAR KRQE 221153Z AUTO 00000KT 10SM FEW095 04/M02 A3016 RMK AO2
SLP128 70001 T00391022 10089 20028 55006 TSNO





000
SAUS45 KFGZ 221058
MTRFLG
METAR KFLG 221057Z AUTO 00000KT 10SM CLR 02/M03 A3014 RMK AO2 SLP133
T00171033 TSNO





000
SAUS45 KFGZ 221054
MTRRQE
METAR KRQE 221053Z AUTO 00000KT 10SM CLR 04/M01 A3016 RMK AO2 SLP127
T00441011 TSNO





000
SAUS45 KFGZ 220958
MTRFLG
METAR KFLG 220957Z AUTO 00000KT 10SM CLR 02/M03 A3016 RMK AO2 SLP144
T00221033 TSNO





000
SAUS45 KFGZ 220954
MTRRQE
METAR KRQE 220953Z AUTO 34004KT 10SM SCT100 BKN120 07/00 A3017 RMK
AO2 SLP128 T00670000 TSNO





000
SAUS45 KFGZ 220858
MTRFLG
METAR KFLG 220857Z AUTO 00000KT 10SM CLR 04/M03 A3017 RMK AO2 SLP146
T00391028 58015 TSNO





000
SAUS45 KFGZ 220854
MTRRQE
METAR KRQE 220853Z AUTO 02003KT 10SM OVC110 08/01 A3018 RMK AO2
SLP133 T00830006 58008 TSNO





000
SAUS45 KFGZ 220758
MTRFLG
METAR KFLG 220757Z AUTO 00000KT 10SM CLR 05/M03 A3019 RMK AO2 SLP149
T00501028 TSNO





000
SAUS45 KFGZ 220754
MTRRQE
METAR KRQE 220753Z AUTO 12003KT 10SM SCT110 07/M01 A3019 RMK AO2
SLP137 T00671011 TSNO





000
SAUS45 KFGZ 220658
MTRFLG
METAR KFLG 220657Z AUTO 00000KT 10SM CLR 07/M03 A3022 RMK AO2 SLP150
T00671028 402110011 TSNO





000
SAUS45 KFGZ 220654
MTRRQE
METAR KRQE 220653Z AUTO 00000KT 10SM BKN110 07/M01 A3020 RMK AO2
SLP135 T00721006 402330006 TSNO





000
SAUS45 KFGZ 220558
MTRFLG
METAR KFLG 220557Z AUTO 23003KT 10SM CLR 08/M02 A3023 RMK AO2 SLP153
T00781022 10206 20078 50003 TSNO





000
SAUS45 KFGZ 220554
MTRRQE
METAR KRQE 220553Z AUTO 00000KT 10SM BKN110 08/00 A3021 RMK AO2
SLP140 T00780000 10228 20067 51003 TSNO





000
SAUS45 KFGZ 220458
MTRFLG
METAR KFLG 220457Z AUTO 00000KT 10SM CLR 09/M02 A3023 RMK AO2 SLP154
T00941022 TSNO





000
SAUS45 KFGZ 220454
MTRRQE
METAR KRQE 220453Z AUTO 00000KT 10SM BKN110 09/M01 A3021 RMK AO2
SLP139 T00891006 TSNO





000
SAUS45 KFGZ 220359
MTRFLG
METAR KFLG 220357Z AUTO 23004KT 10SM CLR 10/M02 A3023 RMK AO2 SLP154
T01001022 TSNO





000
SAUS45 KFGZ 220354
MTRRQE
METAR KRQE 220353Z AUTO 00000KT 10SM CLR 11/00 A3021 RMK AO2 SLP144
T01110000 TSNO





000
SAUS45 KFGZ 220258
MTRFLG
METAR KFLG 220257Z 00000KT 10SM CLR 12/M02 A3021 RMK AO2 SLP156
T01171022 53002





000
SAUS45 KFGZ 220254
MTRRQE
METAR KRQE 220253Z AUTO 09004KT 10SM CLR 13/M01 A3020 RMK AO2 SLP145
T01331006 53001 TSNO





000
SAUS45 KFGZ 220158
MTRFLG
METAR KFLG 220157Z 22004KT 10SM CLR 17/M03 A3020 RMK AO2 SLP156
T01671028





000
SAUS45 KFGZ 220154
MTRRQE
METAR KRQE 220153Z AUTO 33003KT 10SM FEW110 18/M01 A3019 RMK AO2
SLP145 T01781011 TSNO





000
SAUS45 KFGZ 220058
MTRFLG
METAR KFLG 220057Z 21012KT 10SM CLR 20/M03 A3020 RMK AO2 SLP158
T02001033





000
SAUS45 KFGZ 220054
MTRRQE
METAR KRQE 220053Z AUTO 31003KT 10SM BKN110 21/M02 A3018 RMK AO2
SLP149 T02061022 TSNO





000
SAUS45 KFGZ 212358
MTRFLG
METAR KFLG 212357Z 26007KT 10SM FEW095 21/M04 A3021 RMK AO2 SLP157
T02111044 10211 20183 56017





000
SAUS45 KFGZ 212354
MTRRQE
METAR KRQE 212353Z AUTO 02003KT 10SM SCT110 23/M03 A3019 RMK AO2
SLP143 60001 T02281033 10233 20178 56018 TSNO





000
SAUS45 KFGZ 212258
MTRFLG
METAR KFLG 212257Z 10SM OVC110 21/M03 A3022 RMK AO2 SLP161 T02111028





000
SAUS45 KFGZ 212254
MTRRQE
METAR KRQE 212253Z AUTO 23004KT 10SM BKN110 22/M02 A3021 RMK AO2
RAB11E26 SLP145 P0000 T02221022 TSNO





000
SAUS45 KFGZ 212158
MTRFLG
METAR KFLG 212157Z AUTO 23012KT 10SM FEW090 BKN110 19/M02 A3024 RMK
AO2 SLP174 T01891017





000
SAUS45 KFGZ 212154
MTRRQE
METAR KRQE 212153Z AUTO VRB04KT 10SM SCT075 BKN095 OVC120 21/M01
A3023 RMK AO2 RAE2058 SLP157 P0000 T02061006 TSNO





000
SAUS45 KFGZ 212101 COR
MTRRQE
METAR KRQE 212053Z AUTO 16008G20KT 130V220 10SM -RA FEW028 SCT055
BKN070 19/01 A3026 RMK AO2 RAB25 SLP174 P0001 60001 T01890006 56012
TSNO





000
SAUS45 KFGZ 212058
MTRFLG
METAR KFLG 212057Z 03004KT 10SM OVC080 18/00 A3027 RMK AO2 SLP184
T01830000 58012





000
SAUS45 KFGZ 212056 COR
MTRRQE
METAR KRQE 212053Z AUTO 16008G20KT 130V220 10SM -RA FEW028 SCT055
BKN070 19/01 A3026 RMK AO2 RAB25 SLP174 P0001 60001 T01890006 56012
TSNO





000
SAUS45 KFGZ 212055 COR
MTRRQE
METAR KRQE 212053Z AUTO 16008G20KT 130V220 10SM -RA FEW028 SCT055
BKN070 19/01 A3026 RMK AO2 RAB25 SLP174 P0001 60001 T01890006 56012
TSNO





000
SAUS45 KFGZ 212054
MTRRQE
METAR KRQE 212053Z AUTO 16008G20KT 130V220 10SM -RA FEW028 SCT055
BKN070 19/01 A3026 RMK AO2 RAB25 SLP174 P0001 60001 T01890006 56012
TSNO





000
SAUS45 KFGZ 211958
MTRFLG
METAR KFLG 211957Z 00000KT 10SM BKN085 OVC110 19/M02 A3029 RMK AO2
SLP185 T01941022





000
SAUS45 KFGZ 211954
MTRRQE
METAR KRQE 211953Z AUTO 00000KT 10SM OVC090 21/M03 A3026 RMK AO2
SLP168 T02111028 TSNO





000
SAUS45 KFGZ 211858
MTRFLG
METAR KFLG 211857Z 20011G17KT 10SM BKN100 21/M01 A3031 RMK AO2 WSHFT
1827 SLP190 T02061006





000
SAUS45 KFGZ 211854
MTRRQE
METAR KRQE 211853Z AUTO 23007G16KT 10SM SCT110 23/M02 A3028 RMK AO2
SLP164 T02281022 TSNO





000
SAUS45 KFGZ 211848
MTRFLG
SPECI KFLG 211847Z 23013KT 10SM BKN100 19/M01 A3031 RMK AO2 WSHFT
1827 T01941006





000
SAUS45 KFGZ 211758
MTRFLG
METAR KFLG 211757Z VRB03KT 10SM CLR 20/M02 A3031 RMK AO2 SLP192
T02001017 10200 20011 50002





000
SAUS45 KFGZ 211754
MTRRQE
METAR KRQE 211753Z AUTO 23007KT 10SM BKN090 OVC120 21/M03 A3030 RMK
AO2 SLP177 T02061028 10217 20006 58002 TSNO





000
SAUS45 KFGZ 211658
MTRFLG
METAR KFLG 211657Z 05008KT 020V080 10SM CLR 18/M02 A3032 RMK AO2
SLP194 T01831017





000
SAUS45 KFGZ 211654
MTRRQE
METAR KRQE 211653Z AUTO VRB03KT 10SM CLR 19/M02 A3030 RMK AO2 SLP172
T01941022 TSNO





000
SAUS45 KFGZ 211558
MTRFLG
METAR KFLG 211557Z 07007KT 030V090 10SM CLR 17/01 A3032 RMK AO2
SLP194 T01720006





000
SAUS45 KFGZ 211554
MTRRQE
METAR KRQE 211553Z AUTO 00000KT 10SM CLR 17/M01 A3031 RMK AO2 SLP177
T01671006 TSNO





000
SAUS45 KFGZ 211458
MTRFLG
METAR KFLG 211457Z 00000KT 10SM CLR 13/02 A3031 RMK AO2 SLP197
T01280017 53006





000
SAUS45 KFGZ 211454
MTRRQE
METAR KRQE 211453Z AUTO 00000KT 10SM CLR 12/M02 A3030 RMK AO2 SLP182
T01171017 51008 TSNO





000
SAUS45 KFGZ 211358
MTRFLG
METAR KFLG 211357Z 00000KT 10SM CLR 05/01 A3030 RMK AO2 SLP206
T00500011





000
SAUS45 KFGZ 211354
MTRRQE
METAR KRQE 211353Z AUTO 00000KT 10SM CLR 07/M03 A3030 RMK AO2 SLP183
T00671028 TSNO





000
SAUS45 KFGZ 211258
MTRFLG
METAR KFLG 211257Z 00000KT 10SM CLR 02/M01 A3029 RMK AO2 SLP204
T00171006





000
SAUS45 KFGZ 211254
MTRRQE
METAR KRQE 211253Z AUTO 20004KT 10SM CLR 02/M03 A3028 RMK AO2 SLP183
T00171033 TSNO





000
SAUS45 KFGZ 211158
MTRFLG
METAR KFLG 211157Z 00000KT 10SM CLR 02/M01 A3029 RMK AO2 SLP198
T00171006 10044 20011 56003





000
SAUS45 KFGZ 211154
MTRRQE
METAR KRQE 211153Z AUTO 00000KT 10SM SCT100 03/M04 A3027 RMK AO2
SLP180 T00281039 10072 20022 53004 TSNO





000
SAUS45 KFGZ 211058
MTRFLG
METAR KFLG 211057Z 00000KT 10SM CLR 02/M01 A3029 RMK AO2 SLP195
T00171011





000
SAUS45 KFGZ 211054
MTRRQE
METAR KRQE 211053Z AUTO 00000KT 10SM FEW110 04/M03 A3027 RMK AO2
SLP166 T00391028 TSNO





000
SAUS45 KFGZ 210958
MTRFLG
METAR KFLG 210957Z 29003KT 10SM CLR 02/M01 A3029 RMK AO2 SLP198
T00171011





000
SAUS45 KFGZ 210954
MTRRQE
METAR KRQE 210953Z AUTO 00000KT 10SM OVC085 05/M01 A3027 RMK AO2
SLP169 T00501011 TSNO





000
SAUS45 KFGZ 210858
MTRFLG
METAR KFLG 210857Z 00000KT 10SM CLR 03/M01 A3029 RMK AO2 SLP195
T00281006 50001





000
SAUS45 KFGZ 210854
MTRRQE
METAR KRQE 210853Z AUTO 00000KT 10SM SCT100 03/M03 A3026 RMK AO2
SLP170 T00281028 51005 TSNO





000
SAUS45 KFGZ 210758
MTRFLG
METAR KFLG 210757Z 00000KT 10SM CLR 03/00 A3030 RMK AO2 SLP199
T00330000





000
SAUS45 KFGZ 210754
MTRRQE
METAR KRQE 210753Z AUTO 00000KT 10SM CLR 04/M02 A3026 RMK AO2 SLP168
T00441022 TSNO





000
SAUS45 KFGZ 210658
MTRFLG
METAR KFLG 210657Z 00000KT 10SM CLR 03/00 A3030 RMK AO2 SLP196
T00330000 401831006





000
SAUS45 KFGZ 210654
MTRRQE
METAR KRQE 210653Z AUTO 00000KT 10SM CLR 06/M02 A3025 RMK AO2 SLP166
T00561017 402280011 TSNO





000
SAUS45 KFGZ 210558
MTRFLG
METAR KFLG 210557Z 00000KT 10SM CLR 04/01 A3029 RMK AO2 SLP194 60000
T00390006 10167 20039 51008





000
SAUS45 KFGZ 210554
MTRRQE
METAR KRQE 210553Z AUTO 00000KT 10SM FEW090 06/M01 A3024 RMK AO2
SLP163 T00611006 10211 20061 51012 TSNO





000
SAUS45 KFGZ 210458
MTRFLG
METAR KFLG 210457Z 00000KT 10SM CLR 06/02 A3029 RMK AO2 SLP186
T00610017





000
SAUS45 KFGZ 210454
MTRRQE
METAR KRQE 210453Z AUTO 00000KT 10SM BKN095 09/M01 A3023 RMK AO2
SLP152 T00941006 TSNO





000
SAUS45 KFGZ 210358
MTRFLG
METAR KFLG 210357Z 00000KT 10SM CLR 07/03 A3028 RMK AO2 SLP187
T00720028





000
SAUS45 KFGZ 210354
MTRRQE
METAR KRQE 210353Z AUTO 08003KT 10SM CLR 11/M02 A3022 RMK AO2 SLP158
T01061017 TSNO





000
SAUS45 KFGZ 210258
MTRFLG
METAR KFLG 210257Z AUTO 00000KT 10SM FEW080 08/03 A3026 RMK AO2
SLP184 60000 T00830028 53008 TSNO





000
SAUS45 KFGZ 210254
MTRRQE
METAR KRQE 210253Z AUTO 00000KT 10SM CLR 14/M02 A3020 RMK AO2 SLP156
T01391022 53011 TSNO





000
SAUS45 KFGZ 210158
MTRFLG
METAR KFLG 210157Z AUTO 25003KT 10SM SCT085 11/03 A3025 RMK AO2
SLP185 T01110033 TSNO





000
SAUS45 KFGZ 210155
MTRRQE
METAR KRQE 210153Z AUTO 34004KT 10SM CLR 17/M04 A3017 RMK AO2 SLP148
T01721039 TSNO





000
SAUS45 KFGZ 210058
MTRFLG
METAR KFLG 210057Z 00000KT 10SM FEW120 14/03 A3023 RMK AO2 RAB31E41
SLP188 P0000 T01390028





000
SAUS45 KFGZ 210055
MTRRQE
METAR KRQE 210053Z AUTO 33011KT 10SM CLR 20/M05 A3016 RMK AO2 SLP139
T02001050 TSNO





000
SAUS45 KFGZ 202358
MTRFLG
METAR KFLG 202357Z VRB04KT 10SM BKN075 OVC090 16/02 A3023 RMK AO2
SLP182 60000 T01610017 10183 20144 55003





000
SAUS45 KFGZ 202354
MTRRQE
METAR KRQE 202353Z AUTO 33010KT 10SM CLR 19/M04 A3016 RMK AO2 SLP142
60000 T01941044 10228 20172 55004 TSNO





000
SAUS45 KFGZ 202258
MTRFLG
METAR KFLG 202257Z 19010KT 10SM SCT075 SCT120 17/02 A3023 RMK AO2
SLP177 T01670022





000
SAUS45 KFGZ 202254
MTRRQE
METAR KRQE 202253Z AUTO 29007G15KT 10SM OVC100 22/M05 A3015 RMK AO2
SLP127 T02221050 TSNO





000
SAUS45 KFGZ 202158
MTRFLG
METAR KFLG 202157Z 23006KT 10SM FEW100 16/01 A3022 RMK AO2 SLP179
T01610006





000
SAUS45 KFGZ 202154
MTRRQE
METAR KRQE 202153Z AUTO 34009G16KT 10SM FEW100 20/M04 A3015 RMK AO2
SLP135 T02001039 TSNO





000
SAUS45 KFGZ 202058
MTRFLG
METAR KFLG 202057Z 19005KT 10SM FEW080 SCT110 17/01 A3024 RMK AO2
SLP183 60000 T01670006 57005





000
SAUS45 KFGZ 202055
MTRRQE
METAR KRQE 202053Z AUTO 29007G16KT 260V330 10SM BKN100 21/M02 A3017
RMK AO2 SLP135 60000 T02111022 58010 TSNO





000
SAUS45 KFGZ 201958
MTRFLG
METAR KFLG 201957Z VRB03KT 10SM OVC070 15/01 A3025 RMK AO2 RAB36E50
SLP191 P0000 T01500011





000
SAUS45 KFGZ 201955
MTRRQE
METAR KRQE 201953Z AUTO 28005KT 10SM FEW100 19/M01 A3018 RMK AO2
SLP139 T01941006 TSNO





000
SAUS45 KFGZ 201858
MTRFLG
METAR KFLG 201857Z 21009KT 10SM BKN100 17/01 A3025 RMK AO2 SLP186
T01670011





000
SAUS45 KFGZ 201854
MTRRQE
METAR KRQE 201853Z AUTO 32009KT 10SM BKN075 BKN090 BKN110 18/00
A3020 RMK AO2 RAB25E38 SLP147 P0000 T01830000 TSNO





000
SAUS45 KFGZ 201758
MTRFLG
METAR KFLG 201757Z 33005KT 10SM BKN065 OVC095 16/00 A3026 RMK AO2
SLP189 T01560000 10161 20000 53003





000
SAUS45 KFGZ 201754
MTRRQE
METAR KRQE 201753Z AUTO 28006KT 10SM BKN070 BKN095 18/01 A3021 RMK
AO2 SLP151 T01780011 10189 20011 58004 TSNO





000
SAUS45 KFGZ 201658
MTRFLG
METAR KFLG 201657Z VRB03KT 10SM FEW055 16/00 A3026 RMK AO2 SLP185
T01560000





000
SAUS45 KFGZ 201654
MTRRQE
METAR KRQE 201653Z AUTO 31005KT 10SM FEW100 17/02 A3021 RMK AO2
SLP153 T01720022 TSNO





000
SAUS45 KFGZ 201558
MTRFLG
METAR KFLG 201557Z VRB05KT 10SM CLR 13/02 A3025 RMK AO2 SLP186
T01330017





000
SAUS45 KFGZ 201554
MTRRQE
METAR KRQE 201553Z AUTO 00000KT 10SM CLR 13/05 A3022 RMK AO2 SLP164
T01280050 TSNO





000
SAUS45 KFGZ 201458
MTRFLG
METAR KFLG 201457Z VRB05KT 10SM CLR 11/02 A3025 RMK AO2 SLP189
T01110022 51012





000
SAUS45 KFGZ 201454
MTRRQE
METAR KRQE 201453Z AUTO 00000KT 10SM CLR 07/03 A3022 RMK AO2 SLP179
T00720033 52011 TSNO





000
SAUS45 KFGZ 201358
MTRFLG
METAR KFLG 201357Z 20003KT 10SM CLR 07/02 A3024 RMK AO2 SLP186
T00670022





000
SAUS45 KFGZ 201354
MTRRQE
METAR KRQE 201353Z AUTO 00000KT 10SM CLR 03/02 A3021 RMK AO2 SLP184
T00330017 TSNO





000
SAUS45 KFGZ 201258
MTRFLG
METAR KFLG 201257Z 00000KT 10SM CLR 01/M02 A3022 RMK AO2 SLP188
T00061017





000
SAUS45 KFGZ 201254
MTRRQE
METAR KRQE 201253Z AUTO 00000KT 10SM CLR 02/M01 A3019 RMK AO2 SLP178
T00171006 TSNO





000
SAUS45 KFGZ 201158
MTRFLG
METAR KFLG 201157Z AUTO 22003KT 10SM CLR 01/M02 A3021 RMK AO2 SLP182
T00061017 10017 21006 50001 TSNO





000
SAUS45 KFGZ 201154
MTRRQE
METAR KRQE 201153Z AUTO 17003KT 10SM CLR 02/00 A3018 RMK AO2 SLP172
70019 T00170000 10067 20017 53001 TSNO





000
SAUS45 KFGZ 201058
MTRFLG
METAR KFLG 201057Z AUTO 00000KT 10SM CLR 01/M02 A3021 RMK AO2 SLP182
T00061017 TSNO





000
SAUS45 KFGZ 201054
MTRRQE
METAR KRQE 201053Z AUTO 00000KT 10SM CLR 03/01 A3017 RMK AO2 SLP169
T00280006 TSNO





000
SAUS45 KFGZ 200958
MTRFLG
METAR KFLG 200957Z AUTO 00000KT 10SM CLR 01/M02 A3021 RMK AO2 SLP177
T00061017 TSNO





000
SAUS45 KFGZ 200954
MTRRQE
METAR KRQE 200953Z AUTO 22003KT 10SM CLR 03/01 A3018 RMK AO2 SLP149
T00330011 TSNO





000
SAUS45 KFGZ 200858
MTRFLG
METAR KFLG 200857Z AUTO 00000KT 10SM CLR 01/M02 A3021 RMK AO2 SLP175
T00061022 58003 TSNO





000
SAUS45 KFGZ 200854
MTRRQE
METAR KRQE 200853Z AUTO 00000KT 10SM OVC100 04/02 A3018 RMK AO2
SLP152 T00390022 58005 TSNO





000
SAUS45 KFGZ 200758
MTRFLG
METAR KFLG 200757Z AUTO 00000KT 10SM CLR 01/M02 A3022 RMK AO2 SLP176
T00061022 TSNO





000
SAUS45 KFGZ 200754
MTRRQE
METAR KRQE 200753Z AUTO 00000KT 10SM CLR 06/03 A3019 RMK AO2 SLP163
T00560028 TSNO





    US Dept of Commerce
    National Oceanic and Atmospheric Administration
    National Weather Service
    1325 East West Highway
    Silver Spring, MD 20910
    Page Author: NWS Internet Services Team
Disclaimer
Information Quality
Credits
Glossary
Privacy Policy
Freedom of Information Act (FOIA)
About Us
Career Opportunities